createdAt,value
2022-10-28T00:01:33.227Z,5.45
2022-10-28T00:04:35.421Z,6.30
2022-10-28T00:07:37.533Z,6.62
2022-10-28T00:10:39.692Z,6.60
2022-10-28T00:13:43.792Z,6.15
2022-10-28T00:16:45.902Z,6.57
2022-10-28T00:19:48.066Z,6.10
2022-10-28T00:22:50.244Z,6.32
2022-10-28T00:25:52.422Z,6.70
2022-10-28T00:28:57.043Z,7.03
2022-10-28T00:31:59.188Z,6.40
2022-10-28T00:35:01.263Z,7.50
2022-10-28T00:38:03.433Z,7.12
2022-10-28T00:41:05.832Z,7.25
2022-10-28T00:44:45.654Z,6.78
2022-10-28T00:47:52.630Z,6.47
2022-10-28T00:50:55.438Z,6.50
2022-10-28T00:53:57.594Z,6.37
2022-10-28T00:57:02.479Z,6.55
2022-10-28T01:00:06.531Z,6.30
2022-10-28T01:03:09.790Z,6.50
2022-10-28T01:06:12.060Z,5.82
2022-10-28T01:09:14.601Z,6.85
2022-10-28T01:12:46.099Z,6.90
2022-10-28T01:16:02.656Z,5.87
2022-10-28T01:19:13.580Z,6.10
2022-10-28T01:22:56.660Z,7.45
2022-10-28T01:26:31.101Z,5.60
2022-10-28T01:29:57.277Z,5.55
2022-10-28T01:33:16.587Z,6.05
2022-10-28T01:36:27.988Z,5.80
2022-10-28T01:42:56.163Z,5.65
2022-10-28T01:45:59.790Z,5.12
2022-10-28T01:49:19.096Z,5.32
2022-10-28T01:52:24.595Z,5.37
2022-10-28T01:55:29.249Z,4.82
2022-10-28T01:58:32.215Z,6.32
2022-10-28T02:01:34.778Z,5.37
2022-10-28T02:04:37.018Z,5.65
2022-10-28T02:07:39.270Z,6.35
2022-10-28T02:10:46.632Z,5.47
2022-10-28T02:14:00.996Z,4.97
2022-10-28T02:17:32.849Z,5.87
2022-10-28T02:20:44.069Z,4.80
2022-10-28T02:23:49.401Z,4.45
2022-10-28T02:27:15.928Z,4.53
2022-10-28T02:30:28.858Z,4.90
2022-10-28T02:33:34.948Z,4.57
2022-10-28T02:36:40.595Z,4.65
2022-10-28T02:39:45.452Z,5.20
2022-10-28T02:42:53.270Z,5.25
2022-10-28T02:45:57.829Z,5.37
2022-10-28T02:49:03.894Z,5.35
2022-10-28T02:52:06.729Z,4.97
2022-10-28T02:55:09.068Z,4.50
2022-10-28T02:58:11.522Z,4.60
2022-10-28T03:01:13.963Z,4.55
2022-10-28T03:04:16.234Z,4.78
2022-10-28T03:07:18.409Z,5.15
2022-10-28T03:10:20.528Z,4.37
2022-10-28T03:13:22.691Z,5.97
2022-10-28T03:16:26.712Z,4.10
2022-10-28T03:19:28.875Z,5.10
2022-10-28T03:22:31.058Z,3.67
2022-10-28T03:25:33.193Z,3.72
2022-10-28T03:28:35.425Z,3.70
2022-10-28T03:31:37.593Z,4.68
2022-10-28T03:34:40.053Z,3.10
2022-10-28T03:37:43.732Z,3.83
2022-10-28T03:40:48.904Z,3.53
2022-10-28T03:43:51.718Z,4.05
2022-10-28T03:46:53.821Z,3.60
2022-10-28T03:49:55.956Z,3.58
2022-10-28T03:52:58.116Z,3.78
2022-10-28T03:56:01.593Z,4.30
2022-10-28T03:59:03.757Z,4.20
2022-10-28T04:02:06.018Z,3.87
2022-10-28T04:05:08.613Z,4.10
2022-10-28T04:08:10.938Z,3.42
2022-10-28T04:11:13.116Z,3.83
2022-10-28T04:14:15.462Z,3.45
2022-10-28T04:17:17.625Z,3.60
2022-10-28T04:20:19.860Z,3.05
2022-10-28T04:23:22.050Z,3.15
2022-10-28T04:26:24.188Z,4.03
2022-10-28T04:29:26.385Z,3.95
2022-10-28T04:32:28.600Z,3.85
2022-10-28T04:35:30.753Z,5.28
2022-10-28T04:38:32.914Z,4.10
2022-10-28T04:41:35.154Z,2.87
2022-10-28T04:44:37.325Z,3.55
2022-10-28T04:47:39.490Z,4.30
2022-10-28T04:50:41.707Z,2.83
2022-10-28T04:53:43.891Z,4.25
2022-10-28T04:56:45.996Z,3.37
2022-10-28T04:59:48.132Z,3.53
2022-10-28T05:02:50.575Z,4.78
2022-10-28T05:05:52.764Z,3.74
2022-10-28T05:08:54.970Z,3.65
2022-10-28T05:11:57.171Z,3.40
2022-10-28T05:14:59.342Z,2.83
2022-10-28T05:18:01.567Z,2.92
2022-10-28T05:21:03.929Z,3.67
2022-10-28T05:24:06.468Z,3.45
2022-10-28T05:27:08.646Z,3.47
2022-10-28T05:30:11.540Z,3.45
2022-10-28T05:33:13.678Z,3.37
2022-10-28T05:36:15.996Z,3.87
2022-10-28T05:39:18.367Z,3.40
2022-10-28T05:42:20.652Z,3.17
2022-10-28T05:45:22.841Z,3.35
2022-10-28T05:48:25.063Z,3.65
2022-10-28T05:51:27.184Z,3.87
2022-10-28T05:54:29.428Z,2.85
2022-10-28T05:57:35.273Z,3.05
2022-10-28T06:00:37.440Z,3.95
2022-10-28T06:03:39.599Z,3.08
2022-10-28T06:06:41.819Z,3.37
2022-10-28T06:09:43.936Z,3.10
2022-10-28T06:12:44.538Z,2.50
2022-10-28T06:15:53.742Z,2.95
2022-10-28T06:18:56.003Z,3.10
2022-10-28T06:21:58.169Z,2.80
2022-10-28T06:25:00.340Z,3.17
2022-10-28T06:28:05.772Z,3.28
2022-10-28T06:31:11.704Z,2.72
2022-10-28T06:34:13.839Z,3.55
2022-10-28T06:37:16.073Z,2.97
2022-10-28T06:40:18.228Z,2.80
2022-10-28T06:43:20.415Z,2.75
2022-10-28T06:46:22.628Z,3.22
2022-10-28T06:49:26.692Z,3.03
2022-10-28T06:52:28.894Z,3.95
2022-10-28T06:55:31.080Z,2.72
2022-10-28T06:58:33.263Z,3.12
2022-10-28T07:01:35.465Z,3.30
2022-10-28T07:04:37.992Z,3.30
2022-10-28T07:07:40.201Z,3.42
2022-10-28T07:10:42.656Z,2.80
2022-10-28T07:13:46.670Z,3.33
2022-10-28T07:16:51.067Z,3.75
2022-10-28T07:19:53.287Z,3.22
2022-10-28T07:22:56.997Z,3.75
2022-10-28T07:25:59.203Z,4.05
2022-10-28T07:29:01.438Z,3.17
2022-10-28T07:32:03.713Z,3.30
2022-10-28T07:35:06.118Z,2.78
2022-10-28T07:38:08.704Z,3.53
2022-10-28T07:41:10.934Z,3.37
2022-10-28T07:44:13.786Z,8.05
2022-10-28T07:47:17.647Z,9.90
2022-10-28T07:50:20.069Z,5.85
2022-10-28T07:53:24.837Z,5.12
2022-10-28T07:56:29.958Z,5.55
2022-10-28T07:59:32.153Z,3.92
2022-10-28T08:02:34.347Z,4.60
2022-10-28T08:05:36.531Z,3.97
2022-10-28T08:08:39.159Z,3.50
2022-10-28T08:11:41.326Z,6.07
2022-10-28T08:14:43.548Z,4.57
2022-10-28T08:17:51.461Z,4.00
2022-10-28T08:20:53.911Z,3.83
2022-10-28T08:23:56.082Z,4.00
2022-10-28T08:26:58.238Z,3.30
2022-10-28T08:30:00.432Z,3.95
2022-10-28T08:33:02.656Z,3.90
2022-10-28T08:36:05.559Z,3.53
2022-10-28T08:39:07.866Z,4.03
2022-10-28T08:42:47.770Z,3.80
2022-10-28T08:46:15.107Z,3.75
2022-10-28T08:49:20.920Z,3.53
2022-10-28T08:52:41.733Z,3.50
2022-10-28T08:55:46.245Z,3.95
2022-10-28T08:58:49.828Z,3.78
2022-10-28T09:02:00.142Z,3.83
2022-10-28T09:05:21.502Z,3.97
2022-10-28T09:08:28.729Z,3.58
2022-10-28T09:11:57.235Z,3.60
2022-10-28T09:15:35.301Z,5.50
2022-10-28T09:18:51.665Z,4.20
2022-10-28T09:22:06.985Z,4.53
2022-10-28T09:25:48.697Z,4.12
2022-10-28T09:29:13.676Z,4.47
2022-10-28T09:32:34.579Z,4.45
2022-10-28T09:35:42.856Z,6.50
2022-10-28T09:38:45.813Z,5.28
2022-10-28T09:41:49.275Z,4.03
2022-10-28T09:44:58.164Z,5.03
2022-10-28T09:48:11.215Z,4.18
2022-10-28T09:51:27.289Z,4.82
2022-10-28T09:54:34.468Z,4.70
2022-10-28T09:57:36.616Z,4.60
2022-10-28T10:00:38.943Z,4.85
2022-10-28T10:03:41.863Z,4.50
2022-10-28T10:06:45.105Z,4.30
2022-10-28T10:09:47.364Z,3.92
2022-10-28T10:12:52.469Z,4.20
2022-10-28T10:16:02.254Z,4.60
2022-10-28T10:19:05.503Z,4.72
2022-10-28T10:22:07.659Z,4.68
2022-10-28T10:25:18.986Z,4.85
2022-10-28T10:31:27.401Z,4.80
2022-10-28T10:34:30.679Z,4.68
2022-10-28T10:37:36.522Z,5.05
2022-10-28T10:40:49.337Z,5.07
2022-10-28T10:43:51.572Z,5.22
2022-10-28T10:47:04.905Z,6.05
2022-10-28T10:50:29.732Z,5.95
2022-10-28T10:53:32.902Z,6.03
2022-10-28T10:56:35.025Z,4.80
2022-10-28T10:59:37.899Z,4.37
2022-10-28T11:02:40.281Z,5.50
2022-10-28T11:05:55.215Z,5.37
2022-10-28T11:09:18.844Z,4.82
2022-10-28T11:12:35.644Z,4.70
2022-10-28T11:15:37.857Z,4.80
2022-10-28T11:18:42.934Z,5.20
2022-10-28T11:21:45.129Z,6.12
2022-10-28T11:25:14.760Z,5.12
2022-10-28T11:28:47.093Z,7.22
2022-10-28T11:31:49.206Z,6.18
2022-10-28T11:35:08.208Z,6.30
2022-10-28T11:38:19.384Z,6.28
2022-10-28T11:41:21.576Z,6.05
2022-10-28T11:44:58.935Z,5.18
2022-10-28T11:48:27.373Z,5.55
2022-10-28T11:52:03.070Z,5.93
2022-10-28T11:55:18.724Z,5.62
2022-10-28T11:58:35.935Z,5.35
2022-10-28T12:02:02.887Z,5.68
2022-10-28T12:05:28.046Z,5.90
2022-10-28T12:08:48.591Z,5.95
2022-10-28T12:12:02.770Z,4.97
2022-10-28T12:15:16.543Z,5.25
2022-10-28T12:18:54.388Z,7.05
2022-10-28T12:22:05.838Z,5.85
2022-10-28T12:25:14.725Z,5.45
2022-10-28T12:28:21.369Z,4.85
2022-10-28T12:31:30.011Z,5.87
2022-10-28T12:34:40.002Z,6.90
2022-10-28T12:37:48.692Z,6.07
2022-10-28T12:41:06.711Z,5.85
2022-10-28T12:44:16.438Z,5.68
2022-10-28T12:47:23.509Z,6.25
2022-10-28T12:50:42.981Z,7.50
2022-10-28T12:53:51.829Z,7.15
2022-10-28T12:56:59.831Z,7.10
2022-10-28T13:00:14.393Z,5.57
2022-10-28T13:03:17.058Z,7.40
2022-10-28T13:06:32.197Z,7.65
2022-10-28T13:09:39.247Z,6.90
2022-10-28T13:13:13.433Z,6.95
2022-10-28T13:16:45.577Z,6.37
2022-10-28T13:20:12.628Z,5.70
2022-10-28T13:23:42.462Z,5.55
2022-10-28T13:26:45.263Z,6.45
2022-10-28T13:29:51.858Z,6.20
2022-10-28T13:33:08.901Z,6.87
2022-10-28T13:36:26.553Z,6.07
2022-10-28T13:39:28.651Z,6.28
2022-10-28T13:42:32.305Z,6.80
2022-10-28T13:45:54.667Z,6.18
2022-10-28T13:49:26.338Z,6.95
2022-10-28T13:52:28.557Z,7.12
2022-10-28T13:55:40.572Z,5.45
2022-10-28T13:59:16.272Z,8.55
2022-10-28T14:02:37.336Z,7.12
2022-10-28T14:05:39.580Z,6.40
2022-10-28T14:08:41.863Z,7.05
2022-10-28T14:11:44.097Z,7.50
2022-10-28T14:15:06.228Z,6.57
2022-10-28T14:18:42.974Z,7.12
2022-10-28T14:22:01.965Z,7.07
2022-10-28T14:25:45.257Z,7.10
2022-10-28T14:28:52.115Z,9.13
2022-10-28T14:31:54.364Z,12.73
2022-10-28T14:35:03.905Z,9.65
2022-10-28T14:38:31.142Z,7.70
2022-10-28T14:42:08.165Z,7.03
2022-10-28T14:45:47.909Z,8.57
2022-10-28T14:48:55.656Z,8.52
2022-10-28T14:52:05.464Z,7.15
2022-10-28T14:55:08.615Z,7.87
2022-10-28T14:58:23.774Z,7.70
2022-10-28T15:01:40.327Z,9.55
2022-10-28T15:04:45.406Z,8.98
2022-10-28T15:07:48.226Z,10.05
2022-10-28T15:10:50.597Z,9.40
2022-10-28T15:13:53.426Z,9.02
2022-10-28T15:16:56.201Z,9.68
2022-10-28T15:20:00.188Z,8.77
2022-10-28T15:23:29.516Z,9.75
2022-10-28T15:26:31.786Z,9.23
2022-10-28T15:29:34.069Z,9.15
2022-10-28T15:32:36.372Z,8.18
2022-10-28T15:35:38.853Z,8.45
2022-10-28T15:38:42.554Z,8.60
2022-10-28T15:41:49.169Z,8.50
2022-10-28T15:44:54.859Z,7.78
2022-10-28T15:47:58.839Z,7.87
2022-10-28T15:51:15.152Z,7.87
2022-10-28T15:54:20.535Z,8.20
2022-10-28T15:57:30.497Z,8.10
2022-10-28T16:00:36.854Z,8.48
2022-10-28T16:03:45.168Z,8.32
2022-10-28T16:06:47.644Z,8.55
2022-10-28T16:09:50.681Z,8.55
2022-10-28T16:12:52.836Z,7.60
2022-10-28T16:15:58.722Z,7.20
2022-10-28T16:19:09.562Z,6.65
2022-10-28T16:22:13.535Z,7.85
2022-10-28T16:25:18.151Z,10.80
2022-10-28T16:28:25.592Z,12.90
2022-10-28T16:31:29.448Z,15.57
2022-10-28T16:34:31.646Z,12.68
2022-10-28T16:37:34.507Z,9.00
2022-10-28T16:40:50.979Z,8.05
2022-10-28T16:43:55.921Z,8.60
2022-10-28T16:46:58.215Z,7.18
2022-10-28T16:50:00.391Z,8.55
2022-10-28T16:53:02.637Z,8.15
2022-10-28T16:56:08.643Z,8.82
2022-10-28T16:59:15.772Z,6.82
2022-10-28T17:02:29.844Z,8.13
2022-10-28T17:05:32.438Z,8.60
2022-10-28T17:09:01.187Z,8.82
2022-10-28T17:11:56.921Z,9.10
2022-10-28T17:14:59.093Z,9.55
2022-10-28T17:18:04.154Z,9.48
2022-10-28T17:21:06.483Z,8.15
2022-10-28T17:24:08.979Z,7.32
2022-10-28T17:27:13.453Z,7.75
2022-10-28T17:30:17.501Z,7.62
2022-10-28T17:33:19.867Z,8.57
2022-10-28T17:36:23.241Z,11.50
2022-10-28T17:39:26.612Z,8.70
2022-10-28T17:42:29.009Z,8.65
2022-10-28T17:45:31.194Z,7.75
2022-10-28T17:48:34.200Z,8.18
2022-10-28T17:51:36.881Z,7.62
2022-10-28T17:54:39.216Z,7.18
2022-10-28T17:57:41.650Z,6.45
2022-10-28T18:00:45.595Z,7.00
2022-10-28T18:03:50.773Z,6.93
2022-10-28T18:06:55.098Z,7.50
2022-10-28T18:09:57.502Z,6.45
2022-10-28T18:12:59.885Z,7.07
2022-10-28T18:16:10.362Z,6.60
2022-10-28T18:19:13.826Z,6.20
2022-10-28T18:22:16.450Z,6.97
2022-10-28T18:25:18.848Z,6.35
2022-10-28T18:28:23.508Z,7.80
2022-10-28T18:31:27.578Z,9.02
2022-10-28T18:34:30.289Z,7.90
2022-10-28T18:37:32.512Z,8.38
2022-10-28T18:40:34.899Z,7.00
2022-10-28T18:43:37.473Z,7.40
2022-10-28T18:46:40.403Z,7.40
2022-10-28T18:49:45.628Z,6.68
2022-10-28T18:52:52.046Z,7.75
2022-10-28T18:56:00.078Z,5.75
2022-10-28T18:59:04.244Z,7.12
2022-10-28T19:02:06.733Z,6.47
2022-10-28T19:05:09.311Z,7.00
2022-10-28T19:08:11.745Z,7.62
2022-10-28T19:11:13.971Z,6.93
2022-10-28T19:14:16.470Z,7.80
2022-10-28T19:17:18.995Z,7.12
2022-10-28T19:20:21.288Z,7.85
2022-10-28T19:23:23.669Z,7.65
2022-10-28T19:26:25.981Z,8.07
2022-10-28T19:29:28.296Z,9.25
2022-10-28T19:32:30.690Z,9.52
2022-10-28T19:35:34.265Z,9.80
2022-10-28T19:38:37.855Z,10.98
2022-10-28T19:41:40.285Z,10.18
2022-10-28T19:44:42.692Z,9.65
2022-10-28T19:47:44.840Z,10.10
2022-10-28T19:50:50.230Z,8.75
2022-10-28T19:54:00.016Z,8.82
2022-10-28T19:57:02.380Z,7.20
2022-10-28T20:00:05.548Z,7.45
2022-10-28T20:03:07.851Z,7.87
2022-10-28T20:06:14.769Z,7.90
2022-10-28T20:09:16.938Z,7.93
2022-10-28T20:12:19.135Z,7.50
2022-10-28T20:15:21.258Z,7.65
2022-10-28T20:18:23.864Z,7.43
2022-10-28T20:21:30.547Z,8.10
2022-10-28T20:24:32.705Z,7.40
2022-10-28T20:27:35.119Z,7.93
2022-10-28T20:30:37.285Z,8.60
2022-10-28T20:33:41.837Z,7.72
2022-10-28T20:36:44.281Z,7.87
2022-10-28T20:39:47.794Z,9.30
2022-10-28T20:42:50.100Z,7.68
2022-10-28T20:46:00.186Z,7.82
2022-10-28T20:49:02.701Z,9.27
2022-10-28T20:52:04.949Z,8.25
2022-10-28T20:55:08.081Z,7.90
2022-10-28T20:58:10.363Z,8.90
2022-10-28T21:01:18.599Z,9.60
2022-10-28T21:04:20.949Z,9.57
2022-10-28T21:07:23.110Z,9.57
2022-10-28T21:10:25.298Z,7.62
2022-10-28T21:13:27.489Z,7.80
2022-10-28T21:16:30.233Z,8.55
2022-10-28T21:19:32.574Z,8.68
2022-10-28T21:22:35.146Z,10.23
2022-10-28T21:25:37.270Z,9.95
2022-10-28T21:28:43.099Z,10.88
2022-10-28T21:31:45.236Z,9.23
2022-10-28T21:34:47.361Z,8.50
2022-10-28T21:37:49.917Z,9.57
2022-10-28T21:41:04.449Z,8.95
2022-10-28T21:44:06.675Z,8.85
2022-10-28T21:47:08.897Z,9.07
2022-10-28T21:50:11.191Z,8.38
2022-10-28T21:53:13.349Z,9.85
2022-10-28T21:56:18.868Z,8.55
2022-10-28T21:59:21.360Z,8.23
2022-10-28T22:02:23.593Z,8.88
2022-10-28T22:05:25.763Z,8.80
2022-10-28T22:08:28.217Z,8.45
2022-10-28T22:11:30.346Z,8.40
2022-10-28T22:14:32.675Z,8.13
2022-10-28T22:17:34.851Z,9.05
2022-10-28T22:20:37.005Z,9.07
2022-10-28T22:23:39.520Z,9.10
2022-10-28T22:26:41.698Z,8.68
2022-10-28T22:29:43.864Z,9.55
2022-10-28T22:32:46.005Z,7.53
2022-10-28T22:35:56.412Z,8.63
2022-10-28T22:38:58.596Z,9.38
2022-10-28T22:42:00.863Z,8.15
2022-10-28T22:45:03.079Z,10.43
2022-10-28T22:48:05.493Z,8.77
2022-10-28T22:51:09.644Z,9.10
2022-10-28T22:54:11.850Z,8.88
2022-10-28T22:57:14.004Z,9.45
2022-10-28T23:00:16.506Z,8.40
2022-10-28T23:03:19.103Z,9.68
2022-10-28T23:06:23.407Z,8.00
2022-10-28T23:09:25.596Z,9.88
2022-10-28T23:12:27.741Z,8.88
2022-10-28T23:15:30.097Z,9.23
2022-10-28T23:18:32.481Z,9.48
2022-10-28T23:21:34.886Z,8.82
2022-10-28T23:24:37.049Z,10.00
2022-10-28T23:27:40.222Z,9.18
2022-10-28T23:30:42.365Z,9.43
2022-10-28T23:33:44.505Z,9.55
2022-10-28T23:36:46.628Z,10.15
2022-10-28T23:39:48.750Z,8.85
2022-10-28T23:42:50.903Z,8.60
2022-10-28T23:45:53.097Z,9.52
2022-10-28T23:48:55.364Z,8.43
2022-10-28T23:51:57.506Z,8.45
2022-10-28T23:54:59.641Z,8.13
2022-10-28T23:58:01.864Z,9.02
